Time,TemperatureF,DewpointF,PressureIn,WindDirection,WindDirectionDegrees,WindSpeedMPH,WindSpeedGustMPH,Humidity,HourlyPrecipIn,Conditions,Clouds,dailyrainin,SoftwareType,DateUTC
2013-09-13 00:01:00,50.0,45.7,30.00,North,0,2.0,3.0,85,0.00,,,0.00,Weather View 32 v70,2013-09-13 08:01:00,
2013-09-13 00:07:00,50.0,45.7,30.00,NE,45,2.0,2.0,85,0.00,,,0.00,Weather View 32 v70,2013-09-13 08:07:00,
2013-09-13 00:15:00,50.0,45.7,30.00,NE,45,2.0,2.0,85,0.00,,,0.00,Weather View 32 v70,2013-09-13 08:15:00,
2013-09-13 00:22:00,49.8,45.5,30.00,NNE,22,2.0,2.0,85,0.00,,,0.00,Weather View 32 v70,2013-09-13 08:22:00,
2013-09-13 00:23:00,49.8,45.5,30.00,NE,45,2.0,2.0,85,0.00,,,0.00,Weather View 32 v70,2013-09-13 08:23:00,
2013-09-13 00:24:00,49.8,45.5,30.00,NE,45,2.0,2.0,85,0.00,,,0.00,Weather View 32 v70,2013-09-13 08:24:00,
2013-09-13 00:25:00,49.8,45.5,29.98,NE,45,2.0,2.0,85,0.00,,,0.00,Weather View 32 v70,2013-09-13 08:25:00,
2013-09-13 00:26:00,49.8,45.5,29.98,NE,45,2.0,2.0,85,0.00,,,0.00,Weather View 32 v70,2013-09-13 08:26:00,
2013-09-13 00:27:00,49.8,45.5,29.98,NNW,338,2.0,2.0,85,0.00,,,0.00,Weather View 32 v70,2013-09-13 08:27:00,
2013-09-13 00:28:00,49.8,45.5,29.98,NNW,338,2.0,2.0,85,0.00,,,0.00,Weather View 32 v70,2013-09-13 08:28:00,
2013-09-13 00:29:00,49.8,45.5,29.98,NE,45,2.0,2.0,85,0.00,,,0.00,Weather View 32 v70,2013-09-13 08:29:00,
2013-09-13 00:30:00,49.8,45.5,29.98,NE,45,2.0,2.0,85,0.00,,,0.00,Weather View 32 v70,2013-09-13 08:30:00,
2013-09-13 00:35:00,49.5,45.1,29.98,North,0,1.0,2.0,85,0.00,,,0.00,Weather View 32 v70,2013-09-13 08:35:00,
2013-09-13 00:40:00,49.3,45.3,29.98,North,0,1.0,2.0,86,0.00,,,0.00,Weather View 32 v70,2013-09-13 08:40:00,
2013-09-13 00:50:00,49.1,45.1,29.99,NNE,22,1.0,2.0,86,0.00,,,0.00,Weather View 32 v70,2013-09-13 08:50:00,
2013-09-13 00:55:00,48.9,44.9,29.99,South,180,1.0,2.0,86,0.00,,,0.00,Weather View 32 v70,2013-09-13 08:55:00,
2013-09-13 01:01:00,49.1,45.4,29.99,NNE,22,2.0,2.0,87,0.00,,,0.00,Weather View 32 v70,2013-09-13 09:01:00,
2013-09-13 01:06:00,49.1,45.4,30.00,NE,45,2.0,2.0,87,0.00,,,0.00,Weather View 32 v70,2013-09-13 09:06:00,
2013-09-13 01:11:00,48.9,45.2,30.00,North,0,1.0,2.0,87,0.00,,,0.00,Weather View 32 v70,2013-09-13 09:11:00,
2013-09-13 01:16:00,49.1,45.4,30.00,NNE,22,2.0,2.0,87,0.00,,,0.00,Weather View 32 v70,2013-09-13 09:16:00,
2013-09-13 01:21:00,48.9,44.9,30.00,NE,45,2.0,2.0,86,0.00,,,0.00,Weather View 32 v70,2013-09-13 09:21:00,
2013-09-13 01:26:00,48.7,44.7,29.99,NNE,22,2.0,2.0,86,0.00,,,0.00,Weather View 32 v70,2013-09-13 09:26:00,
2013-09-13 01:31:00,48.9,44.9,29.99,NE,45,2.0,2.0,86,0.00,,,0.00,Weather View 32 v70,2013-09-13 09:31:00,
2013-09-13 01:36:00,48.9,44.9,29.99,NNE,22,2.0,2.0,86,0.00,,,0.00,Weather View 32 v70,2013-09-13 09:36:00,
2013-09-13 01:41:00,48.9,44.9,29.99,North,0,1.0,2.0,86,0.00,,,0.00,Weather View 32 v70,2013-09-13 09:41:00,
2013-09-13 01:46:00,49.1,45.1,29.99,NNW,338,2.0,2.0,86,0.00,,,0.00,Weather View 32 v70,2013-09-13 09:46:00,
2013-09-13 01:51:00,48.9,44.9,29.99,NNE,22,2.0,2.0,86,0.00,,,0.00,Weather View 32 v70,2013-09-13 09:51:00,
2013-09-13 01:56:00,49.1,45.1,29.99,NNW,338,2.0,2.0,86,0.00,,,0.00,Weather View 32 v70,2013-09-13 09:56:00,
2013-09-13 02:01:00,49.1,45.1,29.99,NNE,22,3.0,3.0,86,0.00,,,0.00,Weather View 32 v70,2013-09-13 10:01:00,
2013-09-13 02:06:00,49.1,45.1,29.99,North,0,3.0,3.0,86,0.00,,,0.00,Weather View 32 v70,2013-09-13 10:06:00,
2013-09-13 02:11:00,49.1,45.4,29.99,ENE,68,2.0,3.0,87,0.00,,,0.00,Weather View 32 v70,2013-09-13 10:11:00,
2013-09-13 02:16:00,49.1,45.4,29.99,NNW,338,2.0,3.0,87,0.00,,,0.00,Weather View 32 v70,2013-09-13 10:16:00,
2013-09-13 02:21:00,49.1,45.4,29.99,NE,45,2.0,3.0,87,0.00,,,0.00,Weather View 32 v70,2013-09-13 10:21:00,
2013-09-13 02:26:00,49.1,45.4,29.99,NNE,22,2.0,3.0,87,0.00,,,0.00,Weather View 32 v70,2013-09-13 10:26:00,
2013-09-13 02:31:00,49.1,45.7,29.99,NNE,22,2.0,3.0,88,0.00,,,0.00,Weather View 32 v70,2013-09-13 10:31:00,
2013-09-13 02:36:00,49.1,45.7,29.99,ENE,68,2.0,3.0,88,0.00,,,0.00,Weather View 32 v70,2013-09-13 10:36:00,
2013-09-13 02:41:00,48.9,45.5,29.99,NNW,338,2.0,3.0,88,0.00,,,0.00,Weather View 32 v70,2013-09-13 10:41:00,
2013-09-13 02:46:00,48.9,45.5,29.98,NNE,22,3.0,3.0,88,0.00,,,0.00,Weather View 32 v70,2013-09-13 10:46:00,
2013-09-13 02:51:00,49.1,45.7,29.98,ENE,68,3.0,3.0,88,0.00,,,0.00,Weather View 32 v70,2013-09-13 10:51:00,
2013-09-13 02:56:00,49.1,45.7,29.98,NNE,22,3.0,3.0,88,0.00,,,0.00,Weather View 32 v70,2013-09-13 10:56:00,
2013-09-13 03:01:00,49.1,45.7,29.98,NE,45,3.0,3.0,88,0.00,,,0.00,Weather View 32 v70,2013-09-13 11:01:00,
2013-09-13 03:05:00,49.1,45.7,29.98,North,0,3.0,3.0,88,0.00,,,0.00,Weather View 32 v70,2013-09-13 11:05:00,
2013-09-13 03:07:00,49.1,45.7,29.98,North,0,3.0,3.0,88,0.00,,,0.00,Weather View 32 v70,2013-09-13 11:07:00,
2013-09-13 03:22:00,49.3,45.9,29.98,NE,45,3.0,3.0,88,0.00,,,0.00,Weather View 32 v70,2013-09-13 11:22:00,
2013-09-13 03:32:00,49.5,46.0,29.97,NNE,22,3.0,4.0,88,0.00,,,0.00,Weather View 32 v70,2013-09-13 11:32:00,
2013-09-13 03:43:00,49.3,45.9,29.97,SSE,158,4.0,4.0,88,0.00,,,0.00,Weather View 32 v70,2013-09-13 11:43:00,
2013-09-13 03:50:00,49.5,45.7,29.98,NE,45,4.0,4.0,87,0.00,,,0.00,Weather View 32 v70,2013-09-13 11:50:00,
2013-09-13 03:56:00,49.3,45.6,29.98,NNE,22,3.0,4.0,87,0.00,,,0.00,Weather View 32 v70,2013-09-13 11:56:00,
2013-09-13 04:06:00,49.3,45.6,29.98,NNW,338,3.0,4.0,87,0.00,,,0.00,Weather View 32 v70,2013-09-13 12:06:00,
2013-09-13 04:15:00,49.5,45.4,29.98,ENE,68,3.0,4.0,86,0.00,,,0.00,Weather View 32 v70,2013-09-13 12:15:00,
2013-09-13 04:20:00,49.5,45.4,29.98,NNE,22,3.0,4.0,86,0.00,,,0.00,Weather View 32 v70,2013-09-13 12:20:00,
2013-09-13 04:25:00,49.8,45.8,29.97,NNE,22,4.0,4.0,86,0.00,,,0.00,Weather View 32 v70,2013-09-13 12:25:00,
2013-09-13 04:30:00,49.6,45.3,29.97,NE,45,4.0,4.0,85,0.00,,,0.00,Weather View 32 v70,2013-09-13 12:30:00,
2013-09-13 04:35:00,49.8,45.5,29.97,SW,225,4.0,4.0,85,0.00,,,0.00,Weather View 32 v70,2013-09-13 12:35:00,
2013-09-13 04:45:00,49.8,45.5,29.97,NE,45,3.0,4.0,85,0.00,,,0.00,Weather View 32 v70,2013-09-13 12:45:00,
2013-09-13 04:50:00,49.8,45.5,29.97,NNE,22,3.0,4.0,85,0.00,,,0.00,Weather View 32 v70,2013-09-13 12:50:00,
2013-09-13 04:55:00,49.6,45.3,29.97,NNE,22,3.0,4.0,85,0.00,,,0.00,Weather View 32 v70,2013-09-13 12:55:00,
2013-09-13 05:00:00,49.5,45.4,29.97,NNW,338,3.0,4.0,86,0.00,,,0.00,Weather View 32 v70,2013-09-13 13:00:00,
2013-09-13 05:05:00,49.5,45.4,29.97,NE,45,3.0,4.0,86,0.00,,,0.00,Weather View 32 v70,2013-09-13 13:05:00,
2013-09-13 05:10:00,49.3,45.3,29.97,NNW,338,3.0,4.0,86,0.00,,,0.00,Weather View 32 v70,2013-09-13 13:10:00,
2013-09-13 05:15:00,49.3,45.6,29.97,NNW,338,2.0,4.0,87,0.00,,,0.00,Weather View 32 v70,2013-09-13 13:15:00,
2013-09-13 05:20:00,49.1,45.7,29.97,NNW,338,2.0,4.0,88,0.00,,,0.00,Weather View 32 v70,2013-09-13 13:20:00,
2013-09-13 05:30:00,48.9,45.5,29.98,NE,45,2.0,4.0,88,0.00,,,0.00,Weather View 32 v70,2013-09-13 13:30:00,
2013-09-13 05:35:00,48.6,44.9,29.98,SE,135,2.0,4.0,87,0.00,,,0.00,Weather View 32 v70,2013-09-13 13:35:00,
2013-09-13 05:40:00,48.7,45.3,29.98,NE,45,2.0,3.0,88,0.00,,,0.00,Weather View 32 v70,2013-09-13 13:40:00,
2013-09-13 05:45:00,48.6,45.2,29.97,NNE,22,2.0,3.0,88,0.00,,,0.00,Weather View 32 v70,2013-09-13 13:45:00,
2013-09-13 05:50:00,48.6,45.2,29.97,North,0,2.0,3.0,88,0.00,,,0.00,Weather View 32 v70,2013-09-13 13:50:00,
2013-09-13 06:00:00,48.7,45.6,29.97,NNE,22,3.0,3.0,89,0.00,,,0.00,Weather View 32 v70,2013-09-13 14:00:00,
2013-09-13 06:05:00,48.6,45.2,29.97,NNE,22,3.0,3.0,88,0.00,,,0.00,Weather View 32 v70,2013-09-13 14:05:00,
2013-09-13 06:10:00,48.6,45.2,29.97,NNE,22,3.0,3.0,88,0.00,,,0.00,Weather View 32 v70,2013-09-13 14:10:00,
2013-09-13 06:15:00,48.0,44.9,29.97,NNE,22,3.0,3.0,89,0.00,,,0.00,Weather View 32 v70,2013-09-13 14:15:00,
2013-09-13 06:25:00,48.0,45.2,29.97,NNE,22,3.0,3.0,90,0.00,,,0.00,Weather View 32 v70,2013-09-13 14:25:00,
2013-09-13 06:30:00,47.8,45.0,29.97,NNW,338,3.0,3.0,90,0.00,,,0.00,Weather View 32 v70,2013-09-13 14:30:00,
2013-09-13 06:35:00,48.0,45.2,29.97,North,0,2.0,3.0,90,0.00,,,0.00,Weather View 32 v70,2013-09-13 14:35:00,
2013-09-13 06:45:00,48.4,45.6,29.97,NW,315,3.0,3.0,90,0.00,,,0.00,Weather View 32 v70,2013-09-13 14:45:00,
2013-09-13 06:50:00,48.4,45.6,29.97,ENE,68,3.0,3.0,90,0.00,,,0.00,Weather View 32 v70,2013-09-13 14:50:00,
2013-09-13 06:55:00,48.6,45.8,29.97,NW,315,3.0,3.0,90,0.00,,,0.00,Weather View 32 v70,2013-09-13 14:55:00,
2013-09-13 07:01:00,48.4,45.6,29.97,NNE,22,3.0,3.0,90,0.00,,,0.00,Weather View 32 v70,2013-09-13 15:01:00,
2013-09-13 07:10:00,48.4,45.6,29.96,ENE,68,3.0,3.0,90,0.00,,,0.00,Weather View 32 v70,2013-09-13 15:10:00,
2013-09-13 07:20:00,48.4,45.6,29.96,NNW,338,3.0,4.0,90,0.00,,,0.00,Weather View 32 v70,2013-09-13 15:20:00,
2013-09-13 07:25:00,48.4,45.6,29.97,North,0,3.0,4.0,90,0.00,,,0.00,Weather View 32 v70,2013-09-13 15:25:00,
2013-09-13 07:30:00,48.4,45.6,29.97,NNE,22,2.0,4.0,90,0.00,,,0.00,Weather View 32 v70,2013-09-13 15:30:00,
2013-09-13 07:35:00,48.0,45.2,29.97,NE,45,2.0,4.0,90,0.00,,,0.00,Weather View 32 v70,2013-09-13 15:35:00,
2013-09-13 07:40:00,48.0,45.2,29.97,ENE,68,2.0,4.0,90,0.00,,,0.00,Weather View 32 v70,2013-09-13 15:40:00,
2013-09-13 07:45:00,48.2,45.4,29.99,NNE,22,2.0,4.0,90,0.00,,,0.00,Weather View 32 v70,2013-09-13 15:45:00,
2013-09-13 07:50:00,48.4,45.6,29.99,ENE,68,2.0,4.0,90,0.00,,,0.00,Weather View 32 v70,2013-09-13 15:50:00,
2013-09-13 07:55:00,48.4,45.6,29.99,NE,45,2.0,4.0,90,0.00,,,0.00,Weather View 32 v70,2013-09-13 15:55:00,
2013-09-13 08:00:00,48.4,45.6,29.99,NNE,22,3.0,4.0,90,0.00,,,0.00,Weather View 32 v70,2013-09-13 16:00:00,
2013-09-13 08:05:00,48.6,45.8,30.00,NE,45,2.0,4.0,90,0.00,,,0.00,Weather View 32 v70,2013-09-13 16:05:00,
2013-09-13 08:10:00,48.6,45.8,30.00,North,0,3.0,4.0,90,0.00,,,0.00,Weather View 32 v70,2013-09-13 16:10:00,
2013-09-13 08:15:00,48.6,45.8,30.00,NE,45,3.0,4.0,90,0.00,,,0.00,Weather View 32 v70,2013-09-13 16:15:00,
2013-09-13 08:20:00,48.6,45.8,30.00,ENE,68,2.0,3.0,90,0.00,,,0.00,Weather View 32 v70,2013-09-13 16:20:00,
2013-09-13 08:25:00,48.6,45.8,30.00,NE,45,2.0,3.0,90,0.00,,,0.00,Weather View 32 v70,2013-09-13 16:25:00,
2013-09-13 08:30:00,48.6,45.8,30.00,NNE,22,2.0,3.0,90,0.00,,,0.00,Weather View 32 v70,2013-09-13 16:30:00,
2013-09-13 08:40:00,48.6,45.8,30.00,NNE,22,2.0,3.0,90,0.00,,,0.00,Weather View 32 v70,2013-09-13 16:40:00,
2013-09-13 08:45:00,49.1,46.3,30.00,NNW,338,2.0,3.0,90,0.00,,,0.00,Weather View 32 v70,2013-09-13 16:45:00,
2013-09-13 08:50:00,49.1,46.0,30.00,North,0,3.0,3.0,89,0.00,,,0.00,Weather View 32 v70,2013-09-13 16:50:00,
2013-09-13 08:55:00,49.5,46.3,30.00,NE,45,2.0,3.0,89,0.00,,,0.00,Weather View 32 v70,2013-09-13 16:55:00,
2013-09-13 09:00:00,49.8,46.4,30.00,SW,225,2.0,3.0,88,0.00,,,0.00,Weather View 32 v70,2013-09-13 17:00:00,
2013-09-13 09:05:00,50.2,46.8,30.01,North,0,3.0,3.0,88,0.00,,,0.00,Weather View 32 v70,2013-09-13 17:05:00,
2013-09-13 09:10:00,50.5,47.1,30.01,NNW,338,3.0,3.0,88,0.00,,,0.00,Weather View 32 v70,2013-09-13 17:10:00,
2013-09-13 09:15:00,51.3,47.5,30.01,NNW,338,3.0,3.0,87,0.00,,,0.00,Weather View 32 v70,2013-09-13 17:15:00,
2013-09-13 09:20:00,51.4,47.4,30.01,NNW,338,3.0,3.0,86,0.00,,,0.00,Weather View 32 v70,2013-09-13 17:20:00,
2013-09-13 09:25:00,52.2,47.5,30.00,NNE,22,4.0,4.0,84,0.00,,,0.00,Weather View 32 v70,2013-09-13 17:25:00,
2013-09-13 09:30:00,52.7,48.0,30.00,NE,45,4.0,4.0,84,0.00,,,0.00,Weather View 32 v70,2013-09-13 17:30:00,
2013-09-13 09:40:00,52.7,47.7,30.00,NNE,22,4.0,4.0,83,0.00,,,0.00,Weather View 32 v70,2013-09-13 17:40:00,
2013-09-13 09:45:00,52.7,47.3,30.01,NNE,22,4.0,4.0,82,0.00,,,0.00,Weather View 32 v70,2013-09-13 17:45:00,
2013-09-13 09:50:00,52.7,47.3,30.01,NE,45,4.0,4.0,82,0.00,,,0.00,Weather View 32 v70,2013-09-13 17:50:00,
2013-09-13 09:55:00,52.9,47.5,30.01,NNE,22,4.0,4.0,82,0.00,,,0.00,Weather View 32 v70,2013-09-13 17:55:00,
2013-09-13 10:00:00,53.1,47.7,30.01,NW,315,4.0,4.0,82,0.00,,,0.00,Weather View 32 v70,2013-09-13 18:00:00,
2013-09-13 10:05:00,53.4,47.7,30.01,North,0,4.0,4.0,81,0.00,,,0.00,Weather View 32 v70,2013-09-13 18:05:00,
2013-09-13 10:10:00,53.6,47.9,30.01,NNE,22,4.0,4.0,81,0.00,,,0.00,Weather View 32 v70,2013-09-13 18:10:00,
2013-09-13 10:15:00,53.6,47.9,30.01,NNW,338,3.0,4.0,81,0.00,,,0.00,Weather View 32 v70,2013-09-13 18:15:00,
2013-09-13 10:20:00,53.4,47.7,30.01,NNE,22,3.0,4.0,81,0.00,,,0.00,Weather View 32 v70,2013-09-13 18:20:00,
2013-09-13 10:25:00,53.8,48.1,30.01,NNE,22,4.0,4.0,81,0.00,,,0.00,Weather View 32 v70,2013-09-13 18:25:00,
2013-09-13 10:30:00,53.8,48.1,30.01,ENE,68,3.0,4.0,81,0.00,,,0.00,Weather View 32 v70,2013-09-13 18:30:00,
2013-09-13 10:35:00,54.3,48.6,30.01,NNW,338,3.0,4.0,81,0.00,,,0.00,Weather View 32 v70,2013-09-13 18:35:00,
2013-09-13 10:40:00,54.3,48.3,30.01,NNE,22,3.0,4.0,80,0.00,,,0.00,Weather View 32 v70,2013-09-13 18:40:00,
2013-09-13 10:45:00,54.3,48.6,30.01,NNW,338,3.0,4.0,81,0.00,,,0.00,Weather View 32 v70,2013-09-13 18:45:00,
2013-09-13 10:50:00,55.0,49.0,30.01,NNW,338,2.0,4.0,80,0.00,,,0.00,Weather View 32 v70,2013-09-13 18:50:00,
2013-09-13 11:00:00,55.8,49.0,30.01,NNE,22,2.0,4.0,78,0.00,,,0.00,Weather View 32 v70,2013-09-13 19:00:00,
2013-09-13 11:05:00,56.5,49.3,30.02,North,0,3.0,4.0,77,0.00,,,0.00,Weather View 32 v70,2013-09-13 19:05:00,
2013-09-13 11:10:00,57.2,49.3,30.02,NE,45,4.0,4.0,75,0.00,,,0.00,Weather View 32 v70,2013-09-13 19:10:00,
2013-09-13 11:15:00,58.1,49.8,30.02,NW,315,3.0,4.0,74,0.00,,,0.00,Weather View 32 v70,2013-09-13 19:15:00,
2013-09-13 11:20:00,59.4,50.7,30.02,NE,45,3.0,4.0,73,0.00,,,0.00,Weather View 32 v70,2013-09-13 19:20:00,
2013-09-13 11:25:00,61.7,51.4,30.01,North,0,3.0,4.0,69,0.00,,,0.00,Weather View 32 v70,2013-09-13 19:25:00,
2013-09-13 11:30:00,60.6,50.0,30.01,NE,45,4.0,4.0,68,0.00,,,0.00,Weather View 32 v70,2013-09-13 19:30:00,
2013-09-13 11:40:00,59.4,49.5,30.01,NNW,338,3.0,4.0,70,0.00,,,0.00,Weather View 32 v70,2013-09-13 19:40:00,
2013-09-13 11:45:00,61.7,51.4,30.02,NE,45,3.0,4.0,69,0.00,,,0.00,Weather View 32 v70,2013-09-13 19:45:00,
2013-09-13 11:55:00,62.1,49.7,30.02,NNE,22,4.0,4.0,64,0.00,,,0.00,Weather View 32 v70,2013-09-13 19:55:00,
2013-09-13 12:00:00,61.7,50.2,30.02,ENE,68,3.0,4.0,66,0.00,,,0.00,Weather View 32 v70,2013-09-13 20:00:00,
2013-09-13 12:05:00,62.1,50.5,30.03,NNE,22,3.0,4.0,66,0.00,,,0.00,Weather View 32 v70,2013-09-13 20:05:00,
2013-09-13 12:10:00,62.1,50.5,30.03,NNE,22,3.0,4.0,66,0.00,,,0.00,Weather View 32 v70,2013-09-13 20:10:00,
2013-09-13 12:15:00,74.3,53.3,30.03,NNE,22,3.0,4.0,48,0.00,,,0.00,Weather View 32 v70,2013-09-13 20:15:00,
2013-09-13 12:20:00,73.0,52.1,30.03,NNW,338,4.0,4.0,48,0.00,,,0.00,Weather View 32 v70,2013-09-13 20:20:00,
2013-09-13 12:25:00,71.6,51.4,30.03,NNE,22,5.0,5.0,49,0.00,,,0.00,Weather View 32 v70,2013-09-13 20:25:00,
2013-09-13 12:30:00,68.2,49.8,30.03,ENE,68,5.0,5.0,52,0.00,,,0.00,Weather View 32 v70,2013-09-13 20:30:00,
2013-09-13 12:35:00,66.0,49.3,30.03,NE,45,4.0,5.0,55,0.00,,,0.00,Weather View 32 v70,2013-09-13 20:35:00,
2013-09-13 12:40:00,64.9,49.3,30.03,South,180,4.0,5.0,57,0.00,,,0.00,Weather View 32 v70,2013-09-13 20:40:00,
2013-09-13 12:45:00,63.9,49.7,30.06,North,0,4.0,5.0,60,0.00,,,0.00,Weather View 32 v70,2013-09-13 20:45:00,
2013-09-13 12:50:00,63.7,49.5,30.06,ENE,68,3.0,5.0,60,0.00,,,0.00,Weather View 32 v70,2013-09-13 20:50:00,
2013-09-13 12:55:00,63.0,48.8,30.06,NNE,22,3.0,5.0,60,0.00,,,0.00,Weather View 32 v70,2013-09-13 20:55:00,
2013-09-13 13:00:00,62.4,48.8,30.06,ESE,112,3.0,5.0,61,0.00,,,0.00,Weather View 32 v70,2013-09-13 21:00:00,
2013-09-13 13:05:00,62.1,49.3,30.08,NNE,22,3.0,5.0,63,0.00,,,0.00,Weather View 32 v70,2013-09-13 21:05:00,
2013-09-13 13:15:00,61.2,48.0,30.08,SE,135,3.0,5.0,62,0.00,,,0.00,Weather View 32 v70,2013-09-13 21:15:00,
2013-09-13 13:20:00,60.8,48.5,30.08,ENE,68,3.0,5.0,64,0.00,,,0.00,Weather View 32 v70,2013-09-13 21:20:00,
2013-09-13 13:25:00,61.5,49.2,30.07,NE,45,2.0,5.0,64,0.00,,,0.00,Weather View 32 v70,2013-09-13 21:25:00,
2013-09-13 13:35:00,61.7,48.9,30.07,NE,45,3.0,4.0,63,0.00,,,0.00,Weather View 32 v70,2013-09-13 21:35:00,
2013-09-13 13:40:00,62.2,48.6,30.07,East,90,3.0,4.0,61,0.00,,,0.00,Weather View 32 v70,2013-09-13 21:40:00,
2013-09-13 13:45:00,62.1,48.4,30.06,ENE,68,3.0,4.0,61,0.00,,,0.00,Weather View 32 v70,2013-09-13 21:45:00,
2013-09-13 13:50:00,61.7,47.6,30.06,North,0,3.0,3.0,60,0.00,,,0.00,Weather View 32 v70,2013-09-13 21:50:00,
2013-09-13 13:55:00,61.3,48.2,30.06,North,0,2.0,3.0,62,0.00,,,0.00,Weather View 32 v70,2013-09-13 21:55:00,
2013-09-13 14:00:00,61.3,48.6,30.06,NNE,22,1.0,3.0,63,0.00,,,0.00,Weather View 32 v70,2013-09-13 22:00:00,
2013-09-13 14:05:00,61.3,48.6,30.06,North,0,1.0,3.0,63,0.00,,,0.00,Weather View 32 v70,2013-09-13 22:05:00,
2013-09-13 14:15:00,61.7,48.9,30.06,NNW,338,2.0,3.0,63,0.00,,,0.00,Weather View 32 v70,2013-09-13 22:15:00,
2013-09-13 14:20:00,61.7,48.9,30.06,ENE,68,2.0,3.0,63,0.00,,,0.00,Weather View 32 v70,2013-09-13 22:20:00,
2013-09-13 14:25:00,61.7,48.9,30.06,NNW,338,2.0,3.0,63,0.00,,,0.00,Weather View 32 v70,2013-09-13 22:25:00,
2013-09-13 14:30:00,62.1,48.4,30.06,NE,45,2.0,3.0,61,0.00,,,0.00,Weather View 32 v70,2013-09-13 22:30:00,
2013-09-13 14:40:00,64.4,50.2,30.06,NNW,338,2.0,3.0,60,0.00,,,0.00,Weather View 32 v70,2013-09-13 22:40:00,
2013-09-13 14:45:00,64.4,49.7,30.05,NNW,338,2.0,3.0,59,0.00,,,0.00,Weather View 32 v70,2013-09-13 22:45:00,
2013-09-13 14:51:00,69.6,52.7,30.05,NNE,22,2.0,3.0,55,0.00,,,0.00,Weather View 32 v70,2013-09-13 22:51:00,
2013-09-13 15:00:00,70.2,50.1,30.05,NNE,22,3.0,3.0,49,0.00,,,0.00,Weather View 32 v70,2013-09-13 23:00:00,
2013-09-13 15:05:00,67.3,49.0,30.04,NNE,22,3.0,3.0,52,0.00,,,0.00,Weather View 32 v70,2013-09-13 23:05:00,
2013-09-13 15:15:00,66.0,48.9,30.04,NNE,22,2.0,3.0,54,0.00,,,0.00,Weather View 32 v70,2013-09-13 23:15:00,
2013-09-13 15:20:00,65.8,49.2,30.04,ENE,68,2.0,3.0,55,0.00,,,0.00,Weather View 32 v70,2013-09-13 23:20:00,
2013-09-13 15:25:00,65.5,48.4,30.06,NE,45,2.0,3.0,54,0.00,,,0.00,Weather View 32 v70,2013-09-13 23:25:00,
2013-09-13 15:31:00,65.1,49.0,30.06,ESE,112,2.0,3.0,56,0.00,,,0.00,Weather View 32 v70,2013-09-13 23:31:00,
2013-09-13 15:40:00,64.4,48.3,30.06,NNE,22,3.0,3.0,56,0.00,,,0.00,Weather View 32 v70,2013-09-13 23:40:00,
2013-09-13 15:50:00,64.2,48.6,30.06,ENE,68,2.0,3.0,57,0.00,,,0.00,Weather View 32 v70,2013-09-13 23:50:00,
2013-09-13 15:55:00,64.2,48.6,30.06,SE,135,2.0,3.0,57,0.00,,,0.00,Weather View 32 v70,2013-09-13 23:55:00,
2013-09-13 16:00:00,63.9,47.8,30.06,NNE,22,2.0,3.0,56,0.00,,,0.00,Weather View 32 v70,2013-09-14 00:00:00,
2013-09-13 16:05:00,63.5,48.4,30.06,NE,45,1.0,3.0,58,0.00,,,0.00,Weather View 32 v70,2013-09-14 00:05:00,
2013-09-13 16:10:00,63.1,48.5,30.06,ENE,68,1.0,3.0,59,0.00,,,0.00,Weather View 32 v70,2013-09-14 00:10:00,
2013-09-13 16:15:00,62.4,48.3,30.06,NNW,338,1.0,3.0,60,0.00,,,0.00,Weather View 32 v70,2013-09-14 00:15:00,
2013-09-13 16:20:00,61.7,47.6,30.06,NE,45,1.0,3.0,60,0.00,,,0.00,Weather View 32 v70,2013-09-14 00:20:00,
2013-09-13 16:26:00,61.7,48.1,30.06,NE,45,2.0,3.0,61,0.00,,,0.00,Weather View 32 v70,2013-09-14 00:26:00,
2013-09-13 16:31:00,61.3,48.6,30.06,NNE,22,1.0,3.0,63,0.00,,,0.00,Weather View 32 v70,2013-09-14 00:31:00,
2013-09-13 16:35:00,60.8,48.1,30.06,NW,315,1.0,3.0,63,0.00,,,0.00,Weather View 32 v70,2013-09-14 00:35:00,
2013-09-13 16:40:00,61.0,48.7,30.06,ENE,68,1.0,3.0,64,0.00,,,0.00,Weather View 32 v70,2013-09-14 00:40:00,
2013-09-13 16:45:00,61.0,49.1,30.05,NNE,22,1.0,3.0,65,0.00,,,0.00,Weather View 32 v70,2013-09-14 00:45:00,
2013-09-13 16:51:00,61.0,49.1,30.05,NNW,338,1.0,2.0,65,0.00,,,0.00,Weather View 32 v70,2013-09-14 00:51:00,
2013-09-13 16:55:00,60.8,48.9,30.05,North,0,1.0,2.0,65,0.00,,,0.00,Weather View 32 v70,2013-09-14 00:55:00,
2013-09-13 17:00:00,61.3,49.4,30.05,NE,45,0.0,2.0,65,0.00,,,0.00,Weather View 32 v70,2013-09-14 01:00:00,
2013-09-13 17:06:00,61.5,50.0,30.05,North,0,0.0,2.0,66,0.00,,,0.00,Weather View 32 v70,2013-09-14 01:06:00,
2013-09-13 17:11:00,61.5,49.6,30.05,North,0,1.0,2.0,65,0.00,,,0.00,Weather View 32 v70,2013-09-14 01:11:00,
2013-09-13 17:16:00,61.5,48.8,30.05,ENE,68,1.0,2.0,63,0.00,,,0.00,Weather View 32 v70,2013-09-14 01:16:00,
2013-09-13 17:21:00,61.5,48.8,30.05,NE,45,2.0,2.0,63,0.00,,,0.00,Weather View 32 v70,2013-09-14 01:21:00,
2013-09-13 17:26:00,61.7,48.9,30.05,NNW,338,1.0,2.0,63,0.00,,,0.00,Weather View 32 v70,2013-09-14 01:26:00,
2013-09-13 17:31:00,61.7,48.9,30.05,NE,45,1.0,2.0,63,0.00,,,0.00,Weather View 32 v70,2013-09-14 01:31:00,
2013-09-13 17:36:00,61.7,48.9,30.05,NE,45,1.0,2.0,63,0.00,,,0.00,Weather View 32 v70,2013-09-14 01:36:00,
2013-09-13 17:41:00,61.5,48.8,30.05,ENE,68,1.0,2.0,63,0.00,,,0.00,Weather View 32 v70,2013-09-14 01:41:00,
2013-09-13 17:46:00,61.7,49.4,30.05,WNW,292,1.0,2.0,64,0.00,,,0.00,Weather View 32 v70,2013-09-14 01:46:00,
2013-09-13 17:55:00,61.2,48.9,30.05,NE,45,1.0,2.0,64,0.00,,,0.00,Weather View 32 v70,2013-09-14 01:55:00,
2013-09-13 18:00:00,61.0,48.3,30.05,NE,45,2.0,2.0,63,0.00,,,0.00,Weather View 32 v70,2013-09-14 02:00:00,
2013-09-13 18:05:00,61.0,47.4,30.05,NNE,22,2.0,2.0,61,0.00,,,0.00,Weather View 32 v70,2013-09-14 02:05:00,
2013-09-13 18:10:00,60.6,47.5,30.05,NE,45,3.0,3.0,62,0.00,,,0.00,Weather View 32 v70,2013-09-14 02:10:00,
2013-09-13 18:15:00,60.4,47.3,30.05,SE,135,2.0,3.0,62,0.00,,,0.00,Weather View 32 v70,2013-09-14 02:15:00,
2013-09-13 18:20:00,59.9,46.8,30.05,SE,135,2.0,3.0,62,0.00,,,0.00,Weather View 32 v70,2013-09-14 02:20:00,
2013-09-13 18:25:00,59.5,46.9,30.04,SW,225,2.0,3.0,63,0.00,,,0.00,Weather View 32 v70,2013-09-14 02:25:00,
2013-09-13 18:30:00,59.5,46.9,30.04,ENE,68,2.0,3.0,63,0.00,,,0.00,Weather View 32 v70,2013-09-14 02:30:00,
2013-09-13 18:35:00,59.0,46.8,30.04,ESE,112,2.0,3.0,64,0.00,,,0.00,Weather View 32 v70,2013-09-14 02:35:00,
2013-09-13 18:40:00,58.3,46.1,30.04,NE,45,2.0,3.0,64,0.00,,,0.00,Weather View 32 v70,2013-09-14 02:40:00,
2013-09-13 18:45:00,58.3,46.1,30.04,ESE,112,3.0,3.0,64,0.00,,,0.00,Weather View 32 v70,2013-09-14 02:45:00,
2013-09-13 18:50:00,57.7,46.0,30.04,ESE,112,3.0,3.0,65,0.00,,,0.00,Weather View 32 v70,2013-09-14 02:50:00,
2013-09-13 18:56:00,57.4,46.5,30.04,NNE,22,2.0,3.0,67,0.00,,,0.00,Weather View 32 v70,2013-09-14 02:56:00,
2013-09-13 19:05:00,57.2,46.3,30.03,NE,45,2.0,3.0,67,0.00,,,0.00,Weather View 32 v70,2013-09-14 03:05:00,
2013-09-13 19:10:00,57.4,46.9,30.03,NE,45,2.0,3.0,68,0.00,,,0.00,Weather View 32 v70,2013-09-14 03:10:00,
2013-09-13 19:16:00,56.8,46.8,30.03,NNE,22,2.0,3.0,69,0.00,,,0.00,Weather View 32 v70,2013-09-14 03:16:00,